METAR Data

Data at: 0649 UTC 28 Sep 2022

METAR for:CYHZ (Halifax/Stanfield In, NS, CA)
Text:CYHZ 280600Z 18006KT 1/4SM R23/1400V1600FT/N R14/1600V2000FT/N FG VV001 15/15 A2995 RMK FG8 SLP143 DENSITY ALT 600FT
Temperature: 15.0°C ( 59°F)
Dewpoint: 15.0°C ( 59°F) [RH = 100%]
Pressure (altimeter):29.95 inches Hg (1014.3 mb) [Sea level pressure: 1014.3 mb]
Winds:from the S (180 degrees) at 7 MPH (6 knots; 3.1 m/s)
Visibility: 0.25 sm ( 0.40 km)
Ceiling:indefinite ceiling with vertical visibility of 100 feet AGL
Clouds:obscured sky
Weather:FG (fog)